Air Navigation Services of Czech Republic
Airport: LKKB Updated:  04.06.2020 09:31:25  UTC
 METAR LKKB 04.06. 09:30 ...
METAR LKKB 040930Z VRB02KT CAVOK 20/13 Q0997 NOSIG RMK BLU BLU=
 TAF LKKB 04.06. 05:00 ...
TAF LKKB 040500Z 0406/0506 VRB02KT CAVOK      PROB40 TEMPO 0406/0408 4000 MIFG BR      BECMG 0408/0411 15006KT BKN035      TEMPO 0411/0421 24014G26KT 4000 TSRA SCT020CB      BECMG 0418/0420 24007KT      TEMPO 0421/0506 27014KT 6000 RA BKN025=